• Join FlightAware (Why Join?)
  • Login
  • US Flag 
08:58PM EST


 

Airport Tracker/Info


-or-


 

Live Flight TrackerFlight Track Log ✈ FSR15 ✈ 04-Mar-2014 ✈ KCMI - KICT

Flight Track Log - Related Links

Times and Time Zones

All times are in EST time to prevent confusion due to time zone crossing. See the FSR15 flight status page for this flight to view local times or setup timezone preferences in your user account.

Time Position Orientation Groundspeed Altitude Reporting Facility
EST Latitude Longitude Course Direction KTS MPH feet Rate Location/Type
07:38AM 40.0564 -88.3819 250° West 240 276 6,300  Level Chicago Center
07:39AM 40.0328 -88.4644 250° West 243 280 9,800 2,040 Climbing Chicago Center
07:40AM 40.0094 -88.5686 254° West 281 323 10,500 1,920 Climbing Chicago Center
07:41AM 39.9839 -88.6769 253° West 303 349 13,800 3,720 Climbing Chicago Center
07:42AM 39.9589 -88.7942 254° West 324 373 18,100 3,960 Climbing Chicago Center
07:43AM 39.9303 -88.9192 253° West 347 399 22,000 3,660 Climbing Chicago Center
07:44AM 39.8831 -89.1306 254° West 376 433 27,500 3,360 Climbing Kansas City Center
07:45AM 39.8525 -89.2672 254° West 386 444 30,600 2,400 Climbing Kansas City Center
07:46AM 39.8219 -89.3964 253° West 381 438 32,400 2,040 Climbing Kansas City Center
07:47AM 39.7942 -89.5194 254° West 364 419 34,800 2,160 Climbing Kansas City Center
07:48AM 39.7658 -89.6431 253° West 360 414 36,800 1,620 Climbing Kansas City Center
07:49AM 39.7369 -89.7664 253° West 359 413 38,200 1,200 Climbing Kansas City Center
07:50AM 39.7067 -89.8964 253° West 359 413 39,300 780 Climbing Kansas City Center
07:51AM 39.6772 -90.0236 253° West 364 419 39,800 300 Climbing Kansas City Center
07:52AM 39.6458 -90.1539 253° West 374 430 40,000 60 Climbing Kansas City Center
07:53AM 39.6156 -90.2828 253° West 375 432 40,000  Level Kansas City Center
07:54AM 39.5856 -90.4133 253° West 375 432 40,000  Level Kansas City Center
07:55AM 39.5542 -90.5408 252° West 375 432 40,000  Level Kansas City Center
07:56AM 39.5236 -90.6703 253° West 375 432 40,000  Level Kansas City Center
07:57AM 39.4925 -90.7981 253° West 375 432 40,000  Level Kansas City Center
07:58AM 39.4553 -90.9472 252° West 373 429 40,000  Level Kansas City Center
07:59AM 39.4253 -91.0753 253° West 373 429 40,000  Level Kansas City Center
08:00AM 39.3928 -91.2028 252° West 373 429 40,000  Level Kansas City Center
08:01AM 39.3622 -91.3308 253° West 373 429 40,000  Level Kansas City Center
08:02AM 39.3289 -91.4578 251° West 374 430 40,000  Level Kansas City Center
08:03AM 39.2983 -91.5825 252° West 373 429 40,000  Level Kansas City Center
08:04AM 39.2678 -91.7044 252° West 370 426 40,000  Level Kansas City Center
08:05AM 39.2381 -91.8289 253° West 369 425 40,000  Level Kansas City Center
08:06AM 39.2064 -91.9544 252° West 366 421 40,000  Level Kansas City Center
08:07AM 39.1739 -92.0789 251° West 366 421 40,000  Level Kansas City Center
08:08AM 39.1350 -92.2294 252° West 366 421 40,000  Level Kansas City Center
08:10AM 39.1014 -92.3567 251° West 366 421 40,000  Level Kansas City Center
08:11AM 39.0678 -92.4853 251° West 371 427 40,000  Level Kansas City Center
08:12AM 39.0342 -92.6150 252° West 376 433 40,000  Level Kansas City Center
08:13AM 39.0011 -92.7411 251° West 378 435 40,000  Level Kansas City Center
08:14AM 38.9661 -92.8756 252° West 380 437 40,000  Level Kansas City Center
08:15AM 38.9317 -93.0031 251° West 380 437 40,000  Level Kansas City Center
08:16AM 38.8975 -93.1328 251° West 380 437 40,000  Level Kansas City Center
08:17AM 38.8628 -93.2589 251° West 380 437 40,000  Level Kansas City Center
08:18AM 38.8289 -93.3897 252° West 381 438 40,000  Level Kansas City Center
08:19AM 38.7939 -93.5172 251° West 381 438 40,000  Level Kansas City Center
08:20AM 38.7594 -93.6439 251° West 381 438 40,000  Level Kansas City Center
08:21AM 38.7247 -93.7736 251° West 379 436 40,000  Level Kansas City Center
08:22AM 38.6853 -93.9167 251° West 379 436 40,000  Level Kansas City Center
08:23AM 38.6517 -94.0383 251° West 379 436 40,000  Level Kansas City Center
08:24AM 38.6169 -94.1608 250° West 379 436 40,000  Level Kansas City Center
08:25AM 38.5778 -94.3031 251° West 379 436 40,000  Level Kansas City Center
08:26AM 38.5439 -94.4261 251° West 380 437 40,000  Level Kansas City Center
08:27AM 38.5175 -94.5528 255° West 386 444 40,000  Level Kansas City Center
08:28AM 38.4992 -94.7033 261° West 381 438 40,000  Level Kansas City Center
08:29AM 38.4839 -94.8350 262° West 386 444 40,000  Level Kansas City Center
08:30AM 38.4650 -94.9864 261° West 387 445 40,000  Level Kansas City Center
08:31AM 38.4481 -95.1189 261° West 391 450 40,000  Level Kansas City Center
08:32AM 38.4317 -95.2500 261° West 392 451 40,000 -840 Level Kansas City Center
08:33AM 38.4125 -95.3992 261° West 384 442 38,300 -1,860 Descending Kansas City Center
08:34AM 38.3956 -95.5300 261° West 386 444 36,300 -1,920 Descending Kansas City Center
08:35AM 38.3794 -95.6544 261° West 377 434 34,400 -2,040 Descending Kansas City Center
08:36AM 38.3603 -95.8061 261° West 382 440 32,200 -2,040 Descending Kansas City Center
08:37AM 38.3422 -95.9364 260° West 384 442 30,300 -1,980 Descending Kansas City Center
08:38AM 38.3244 -96.0678 260° West 388 447 28,200 -2,220 Descending Kansas City Center
08:39AM 38.3042 -96.2178 260° West 388 447 25,800 -2,220 Descending Kansas City Center
08:40AM 38.2875 -96.3453 261° West 382 440 23,700 -2,160 Descending Kansas City Center
08:41AM 38.2508 -96.4664 249° West 370 426 21,400 -2,280 Descending Kansas City Center
08:42AM 38.1828 -96.5736 231° Southwest 371 427 19,200 -2,220 Descending Kansas City Center
08:42AM 38.1850 -96.5708 44° Northeast 380 437 19,200 -2,220 Level Kansas City Center
08:43AM 38.1253 -96.6683 232° Southwest 362 417 17,200 -1,980 Descending Kansas City Center
08:43AM 38.1244 -96.6714 251° West 361 415 17,200 -2,400 Level Kansas City Center
08:44AM 38.0550 -96.7811 231° Southwest 355 409 14,600 -2,280 Descending Kansas City Center
08:44AM 38.0628 -96.7706 47° Northeast 361 415 14,900 -2,280 Climbing Kansas City Center
08:45AM 37.9936 -96.8789 231° Southwest 350 403 12,300 -2,280 Descending Kansas City Center
08:45AM 38.0028 -96.8672 45° Northeast 355 409 12,600 -2,340 Climbing Kansas City Center
08:46AM 37.9483 -96.9525 231° Southwest 280 322 10,200 -2,640 Descending Kansas City Center
08:46AM 37.9422 -96.9653 239° Southwest 295 339 9,900 -2,220 Descending Kansas City Center
08:47AM 37.9111 -97.0408 242° Southwest 279 321 8,000 -2,100 Descending Kansas City Center
08:47AM 37.9061 -97.0542 245° Southwest 285 328 7,800 -2,100 Descending Kansas City Center
08:48AM 37.8775 -97.1258 243° Southwest 274 315 5,900 -2,100 Descending Kansas City Center
08:48AM 37.8750 -97.1414 258° West 277 319 5,700 -1,560 Descending Kansas City Center
08:49AM 37.8506 -97.2125 246° West 245 282 4,200 -1,500 Descending Kansas City Center
08:49AM 37.8478 -97.2197 244° Southwest 254 292 4,200 -300 Level Kansas City Center
08:50AM 37.8283 -97.2847 249° West 218 251 3,900 -240 Descending Kansas City Center
08:50AM 37.8256 -97.2922 245° Southwest 238 274 4,000 -540 Climbing Kansas City Center
08:51AM 37.7983 -97.3450 237° Southwest 174 200 3,400 -540 Descending Kansas City Center
08:51AM 37.7978 -97.3450 180° South 202 232 3,500 -300 Climbing Kansas City Center
08:52AM 37.7642 -97.3822 221° Southwest 155 178 3,100 -300 Descending Kansas City Center
08:52AM 37.7650 -97.3836 307° West 178 205 3,200 -300 Climbing Kansas City Center
08:53AM 37.7286 -97.4036 203° Southwest 123 142 2,800 -300 Descending Kansas City Center
08:53AM 37.7317 -97.4031 North 148 170 2,900 -480 Climbing Kansas City Center
08:54AM 37.7008 -97.4158 198° South 131 151 2,300 -600 Descending Kansas City Center
08:55AM 37.6761 -97.4275 200° South 99 114 1,800 -600 Descending Kansas City Center
08:55AM 37.6744 -97.4281 195° South 117 135 1,700 -540 Descending Kansas City Center
08:57AM 37.6499 -97.4331 218° Southwest  Level Estimated